Portada
METAR-TAF:

METAR-TAF

Aeroports :

Lençóis, Bahia, Brasil

latitud: 12-29-00S, longitud: 041-16-23W, altitud: 511 m

Observació

L'informe es va fer fa 1 hora i 11 minuts, a les 20:00 UTC
Vent 7 kt del Est/Sud-Est
Temperatura 32°C
Humitat 29%
Pressió 1012 hPa
Visibilitat 10 km o més
Escasses núvols a una alçada de 4000 ft

METAR: SBLE 132000Z 11007KT 9999 FEW040 32/12 Q1012

Hora: 19:11 (21:11 UTC)


TAF: manca

Observacions i pronòstics meteorològics de més de 4000 aeroports (METAR i TAF).

Les estacions disponibles són els punts grocs i vermells al mapa.

Posi el ratolí al punt desitjat per veure el nom de l'estació.

Feu clic per veure les observacions i els pronòstics meteorològics.

Per canviar el mapa: feu clic els botons verds amb una creu de color negre per apropar; al botó verd amb un guió per allunyar la imatge; o en les fletxes verdes per a mapes adjacents.


METAR-TAF: